• Join FlightAware (Why Join?)
  • Login
  • US Flag 
01:40AM EDT


 

Airport Tracker/Info


-or-


 

Live Flight TrackerFlight Track Log ✈ N851MA ✈ 14-Nov-2013 ✈ KEKM - KAID

Flight Track Log - Related Links

Times and Time Zones

All times are in EST time to prevent confusion due to time zone crossing. See the N851MA flight status page for this flight to view local times or setup timezone preferences in your user account.

Time Position Orientation Groundspeed Altitude Reporting Facility
EST Latitude Longitude Course Direction KTS MPH feet Rate Location/Type
01:35PM 41.6689 -85.9347 168° South 178 205 3,100  Level Chicago Center
01:36PM 41.6267 -85.9122 158° South 170 196 4,600 900 Climbing Chicago Center
01:37PM 41.5808 -85.8933 163° South 169 194 5,000 180 Climbing Chicago Center
01:38PM 41.4136 -85.9276 168° South  Level Estimated
01:38PM 41.5147 -85.8764 169° South 187 215 5,000  Level Chicago Center
01:39PM 41.3527 -85.9109 168° South  Level FlightAware Approximate
01:39PM 41.4597 -85.8642 171° South 197 227 5,000  Level Chicago Center
01:40PM 41.2918 -85.8943 168° South  Level FlightAware Approximate
01:40PM 41.4050 -85.8592 176° South 199 229 4,900  Level Chicago Center
01:41PM 41.3514 -85.8564 178° South 197 227 5,000  Climbing Chicago Center
01:42PM 41.2978 -85.8547 179° South 195 224 5,000  Level Chicago Center
01:43PM 41.2314 -85.8375 169° South 198 228 5,000  Level Chicago Center
01:44PM 41.1764 -85.8267 172° South 200 230 5,000  Level Chicago Center
01:45PM 41.1203 -85.8142 170° South 202 232 5,000  Level Chicago Center
01:46PM 41.0708 -85.8058 173° South 207 238 5,100 60 Climbing Chicago Center
01:46PM 41.0631 -85.8033 166° South 205 236 5,100 -180 Level Chicago Center
01:46PM 41.0336 -85.7986 173° South 205 236 5,000 -120 Descending Chicago Center
01:47PM 41.0072 -85.7931 171° South 205 236 5,000 60 Level Chicago Center
01:47PM 40.9797 -85.7875 171° South 203 234 5,100 60 Climbing Chicago Center
01:48PM 40.9511 -85.7817 171° South 205 236 5,100 -120 Level Chicago Center
01:48PM 40.9214 -85.7792 176° South 204 235 5,000 -120 Descending Chicago Center
01:49PM 40.8839 -85.7686 168° South 204 235 5,000 60 Level Chicago Center
01:49PM 40.8656 -85.7653 172° South 206 237 5,100 60 Climbing Chicago Center
01:50PM 40.8275 -85.7564 170° South 205 236 5,100 -120 Level Chicago Center
01:51PM 40.8075 -85.7542 175° South 207 238 5,000  Descending Chicago Center
01:51PM 40.7703 -85.7444 169° South 206 237 5,100 60 Climbing Chicago Center
01:52PM 40.7514 -85.7433 177° South 208 239 5,100  Level Chicago Center
01:52PM 40.7139 -85.7336 169° South 206 237 5,100  Level Chicago Center
01:53PM 40.6914 -85.7322 177° South 207 238 5,100 -120 Level Chicago Center
01:53PM 40.6561 -85.7222 168° South 208 239 5,000  Descending Chicago Center
01:53PM 40.6414 -85.7214 178° South 206 237 5,100 -300 Climbing Chicago Center
01:54PM 40.5878 -85.7083 170° South 208 239 4,700 -420 Descending Chicago Center
01:54PM 40.5814 -85.7103 193° South 211 243 4,700 -420 Level Chicago Center
01:55PM 40.5278 -85.6950 168° South 212 244 4,300 -360 Descending Chicago Center
01:56PM 40.4669 -85.6811 170° South 217 250 4,000 -180 Descending Chicago Center
01:57PM 40.4108 -85.6722 173° South 213 245 4,000 -120 Level Chicago Center
01:59PM 40.3167 -85.6500 170° South 194 223 3,700 -420 Descending Indianapolis TRACON
02:00PM 40.2667 -85.6333 166° South 196 226 3,000 -660 Descending Indianapolis TRACON
02:01PM 40.2000 -85.6167 169° South 186 214 2,400 -480 Descending Indianapolis TRACON
02:02PM 40.1667 -85.6000 159° South 156 180 2,100 -480 Descending Indianapolis TRACON
02:03PM 40.1333 -85.6000 180° South 112 129 1,600 -540 Descending Indianapolis TRACON